Time;durP1;ratioP1;P1;durP2;ratioP2;P2;SDS_P1;SDS_P2;PMS_P1;PMS_P2;Temp;Humidity;BMP_temperature;BMP_pressure;BME280_temperature;BME280_humidity;BME280_pressure;Samples;Min_cycle;Max_cycle;Signal;HPM_P1;HPM_P2
2024/02/19 00:00:34;;;;;;;49.30;21.50;;;;;;;4.35;81.67;100873.27;109656;1268;22582;-88
2024/02/19 00:03:57;;;;;;;51.80;21.30;;;;;;;4.36;81.75;100870.41;109474;1268;23939;-89
2024/02/19 00:06:52;;;;;;;56.80;23.60;;;;;;;4.37;81.81;100867.94;109321;1268;22591;-88
2024/02/19 00:09:54;;;;;;;47.10;20.90;;;;;;;4.39;81.82;100863.47;109443;1267;22582;-89
2024/02/19 00:12:51;;;;;;;50.40;23.40;;;;;;;4.39;81.89;100860.31;109329;1268;22753;-87
2024/02/19 00:15:47;;;;;;;54.70;22.70;;;;;;;4.39;81.93;100860.07;109264;1266;22581;-87
2024/02/19 00:18:49;;;;;;;56.70;22.90;;;;;;;4.41;82.10;100849.84;109033;1268;26054;-88
2024/02/19 00:21:42;;;;;;;53.40;23.00;;;;;;;4.40;82.05;100840.70;109162;1269;23822;-87
2024/02/19 00:24:47;;;;;;;49.60;22.00;;;;;;;4.40;82.20;100834.08;109416;1268;22482;-87
2024/02/19 00:27:46;;;;;;;54.40;25.10;;;;;;;4.39;82.28;100835.75;109178;1268;24307;-87
2024/02/19 00:30:43;;;;;;;57.20;22.20;;;;;;;4.39;82.45;100827.92;109341;1268;25236;-87
2024/02/19 00:33:38;;;;;;;52.70;23.20;;;;;;;4.37;82.48;100821.81;109126;1268;25281;-87
2024/02/19 00:36:37;;;;;;;50.10;21.80;;;;;;;4.36;82.64;100816.63;109219;1268;22462;-87
2024/02/19 00:39:31;;;;;;;53.60;22.40;;;;;;;4.36;82.81;100812.27;109138;1268;22532;-87
2024/02/19 00:42:30;;;;;;;64.10;26.20;;;;;;;4.36;82.86;100805.48;109436;1262;22536;-88
2024/02/19 00:45:46;;;;;;;58.70;25.00;;;;;;;4.36;82.99;100798.30;109512;1262;22471;-88
2024/02/19 00:48:45;;;;;;;63.70;25.50;;;;;;;4.36;83.12;100793.24;109360;1246;22583;-88
2024/02/19 00:51:42;;;;;;;63.10;26.90;;;;;;;4.36;83.20;100791.98;109314;1268;24183;-88
2024/02/19 00:54:37;;;;;;;65.40;26.80;;;;;;;4.35;83.27;100785.67;109287;1268;24216;-88
2024/02/19 00:57:32;;;;;;;54.70;24.90;;;;;;;4.37;83.38;100780.82;109592;1268;23827;-88
2024/02/19 01:00:37;;;;;;;50.90;23.40;;;;;;;4.39;83.53;100778.98;109545;1268;22564;-88
2024/02/19 01:03:33;;;;;;;51.30;22.60;;;;;;;4.41;83.68;100776.23;109335;1269;24322;-87
2024/02/19 01:06:30;;;;;;;53.40;22.80;;;;;;;4.43;83.76;100769.66;109554;1269;25420;-87
2024/02/19 01:09:24;;;;;;;53.70;21.30;;;;;;;4.44;83.92;100766.79;109459;1269;25278;-87
2024/02/19 01:12:21;;;;;;;51.10;21.00;;;;;;;4.45;84.06;100760.92;109514;1269;22710;-89
2024/02/19 01:15:19;;;;;;;46.20;20.30;;;;;;;4.48;84.07;100757.93;109589;1268;22574;-89
2024/02/19 01:18:16;;;;;;;53.20;23.20;;;;;;;4.51;84.19;100746.73;109747;1269;25420;-89
2024/02/19 01:21:15;;;;;;;43.50;19.10;;;;;;;4.53;84.25;100738.17;109590;1269;23230;-89
2024/02/19 01:24:12;;;;;;;50.60;22.10;;;;;;;4.53;84.37;100730.89;109629;1268;23285;-87
2024/02/19 01:27:06;;;;;;;49.60;22.10;;;;;;;4.55;84.53;100723.83;109438;1268;25242;-87
2024/02/19 01:30:04;;;;;;;49.20;20.40;;;;;;;4.56;84.53;100722.79;109722;1269;22491;-89
2024/02/19 01:33:03;;;;;;;46.00;19.00;;;;;;;4.55;84.65;100713.25;109605;1264;25307;-90
2024/02/19 01:36:15;;;;;;;44.00;19.00;;;;;;;4.56;84.76;100715.27;109316;1268;22772;-89
2024/02/19 01:39:13;;;;;;;48.20;18.70;;;;;;;4.56;84.83;100705.94;109495;1268;25358;-89
2024/02/19 01:42:31;;;;;;;47.00;19.20;;;;;;;4.58;84.95;100696.50;109321;1268;23814;-88
2024/02/19 01:45:31;;;;;;;41.10;18.10;;;;;;;4.60;85.10;100690.30;109356;1268;25199;-87
2024/02/19 01:48:34;;;;;;;47.40;19.60;;;;;;;4.61;85.16;100686.73;109509;1268;24900;-89
2024/02/19 01:51:34;;;;;;;37.40;16.60;;;;;;;4.63;85.22;100682.11;109710;1268;22566;-89
2024/02/19 01:54:35;;;;;;;40.10;18.10;;;;;;;4.65;85.30;100673.92;109336;1264;22567;-89
2024/02/19 01:57:39;;;;;;;40.60;17.70;;;;;;;4.67;85.29;100673.41;109147;1269;23263;-87
2024/02/19 02:00:34;;;;;;;42.30;17.90;;;;;;;4.69;85.37;100666.88;109099;1269;22581;-87
2024/02/19 02:03:36;;;;;;;41.70;17.30;;;;;;;4.70;85.33;100661.00;109105;1269;23102;-87
2024/02/19 02:06:39;;;;;;;38.10;17.30;;;;;;;4.70;85.30;100655.38;109122;1269;25274;-87
2024/02/19 02:09:34;;;;;;;;;;;;;;;4.72;85.47;100645.64;109258;1269;22724;-88
2024/02/19 02:12:33;;;;;;;39.10;16.20;;;;;;;4.72;85.63;100636.63;109461;1269;22568;-87
2024/02/19 02:15:31;;;;;;;38.40;16.00;;;;;;;4.69;85.47;100640.31;109058;1269;22552;-87
2024/02/19 02:18:33;;;;;;;35.30;15.80;;;;;;;4.70;85.66;100633.73;109488;1262;26118;-88
2024/02/19 02:21:31;;;;;;;35.50;15.90;;;;;;;4.71;85.58;100626.45;109061;1268;22544;-88
2024/02/19 02:24:28;;;;;;;45.30;17.90;;;;;;;4.71;85.64;100619.90;109131;1268;25269;-87
2024/02/19 02:27:22;;;;;;;42.50;19.00;;;;;;;4.72;85.63;100614.90;109048;1269;24240;-87
2024/02/19 02:30:35;;;;;;;41.10;17.60;;;;;;;4.73;85.62;100613.84;109229;1268;22569;-89
2024/02/19 02:33:28;;;;;;;42.20;17.90;;;;;;;4.72;85.68;100606.11;109297;1269;22572;-88
2024/02/19 02:36:22;;;;;;;41.70;18.30;;;;;;;4.73;85.65;100606.83;108919;1268;24283;-88
2024/02/19 02:39:22;;;;;;;36.20;17.00;;;;;;;4.74;85.81;100602.42;109356;1269;25268;-88
2024/02/19 02:42:19;;;;;;;39.60;17.30;;;;;;;4.76;85.78;100600.34;109413;1268;25221;-87
2024/02/19 02:45:17;;;;;;;43.20;19.10;;;;;;;4.77;85.83;100597.07;109428;1268;25333;-87
2024/02/19 02:48:25;;;;;;;40.80;17.20;;;;;;;4.79;85.80;100589.91;109195;1268;22524;-90
2024/02/19 02:51:30;;;;;;;44.60;18.10;;;;;;;4.80;85.91;100584.70;109359;1268;23171;-88
2024/02/19 02:54:25;;;;;;;43.60;18.80;;;;;;;4.81;86.10;100579.19;109239;1268;26092;-87
2024/02/19 02:57:23;;;;;;;49.20;18.00;;;;;;;4.82;86.09;100580.03;109477;1268;22549;-87
2024/02/19 03:00:26;;;;;;;46.60;18.90;;;;;;;4.83;86.06;100576.77;109208;1268;25214;-88
2024/02/19 03:03:20;;;;;;;47.20;19.90;;;;;;;4.85;86.09;100566.69;109287;1268;22572;-88
2024/02/19 03:06:17;;;;;;;43.80;19.70;;;;;;;4.87;86.13;100571.38;109231;1244;23177;-87
2024/02/19 03:09:12;;;;;;;44.10;19.10;;;;;;;4.88;86.27;100570.48;108775;1268;22622;-87
2024/02/19 03:12:10;;;;;;;44.40;19.30;;;;;;;4.88;86.37;100568.42;109091;1268;22528;-87
2024/02/19 03:15:13;;;;;;;36.60;17.10;;;;;;;4.87;86.44;100560.95;109215;1268;22779;-87
2024/02/19 03:18:09;;;;;;;39.60;17.00;;;;;;;4.86;86.54;100559.70;109148;1268;22521;-88
2024/02/19 03:21:07;;;;;;;44.90;19.00;;;;;;;4.87;86.54;100555.17;109119;1268;24171;-88
2024/02/19 03:24:10;;;;;;;36.70;15.90;;;;;;;4.88;86.69;100547.10;109233;1268;25301;-87
2024/02/19 03:27:04;;;;;;;41.50;17.70;;;;;;;4.89;86.73;100548.65;109716;1268;22683;-89
2024/02/19 03:30:00;;;;;;;37.40;16.00;;;;;;;4.91;86.83;100546.77;110796;1268;22548;-88
2024/02/19 03:33:06;;;;;;;37.80;16.20;;;;;;;4.93;86.83;100544.20;110129;1268;24146;-88
2024/02/19 03:36:04;;;;;;;41.30;15.60;;;;;;;4.93;86.88;100543.25;109728;1268;22611;-88
2024/02/19 03:38:59;;;;;;;37.10;16.10;;;;;;;4.96;87.00;100539.95;108931;1267;22547;-88
2024/02/19 03:42:00;;;;;;;38.70;16.20;;;;;;;4.98;86.98;100535.71;109298;1268;22922;-89
2024/02/19 03:45:16;;;;;;;43.30;17.70;;;;;;;4.99;87.14;100537.42;109231;1268;24186;-86
2024/02/19 03:48:38;;;;;;;39.60;16.60;;;;;;;4.99;87.20;100531.16;109331;1268;22643;-88
2024/02/19 03:51:35;;;;;;;37.50;16.80;;;;;;;5.01;87.30;100526.23;109027;1268;24201;-89
2024/02/19 03:54:34;;;;;;;42.50;18.10;;;;;;;5.02;87.56;100527.37;109211;1268;22585;-87
2024/02/19 03:57:31;;;;;;;39.60;17.90;;;;;;;5.04;87.79;100523.30;109494;1268;22595;-88
2024/02/19 04:00:26;;;;;;;35.90;16.40;;;;;;;5.05;87.98;100520.75;108816;1268;22524;-86
2024/02/19 04:03:21;;;;;;;40.50;18.10;;;;;;;5.04;88.26;100518.40;108851;1268;22478;-86
2024/02/19 04:06:16;;;;;;;36.20;17.20;;;;;;;5.05;88.54;100513.80;108836;1268;22528;-87
2024/02/19 04:09:11;;;;;;;42.20;19.10;;;;;;;5.05;88.84;100512.60;108726;1268;22647;-87
2024/02/19 04:12:40;;;;;;;39.20;18.40;;;;;;;5.04;89.07;100504.72;110018;1244;22525;-88
2024/02/19 04:15:52;;;;;;;;;;;;;;;5.05;89.34;100501.08;109767;1268;25227;-89
2024/02/19 04:19:23;;;;;;;35.50;16.60;;;;;;;5.05;89.56;100498.83;110043;1268;22548;-88
2024/02/19 04:22:21;;;;;;;39.20;16.50;;;;;;;5.06;89.85;100499.37;110236;1268;23804;-90
2024/02/19 04:26:00;;;;;;;38.30;18.00;;;;;;;5.07;90.20;100501.39;110376;1268;22574;-91
2024/02/19 04:33:57;;;;;;;37.70;17.10;;;;;;;5.10;90.76;100477.91;108948;1273;25272;-88
2024/02/19 04:37:03;;;;;;;37.20;16.10;;;;;;;5.12;91.00;100472.48;108570;1272;22737;-89
2024/02/19 04:40:20;;;;;;;36.00;14.90;;;;;;;5.13;91.18;100471.26;108879;1274;22466;-88
2024/02/19 04:43:20;;;;;;;36.20;14.70;;;;;;;5.14;91.64;100470.22;108817;1274;22542;-88
2024/02/19 04:46:14;;;;;;;35.00;15.80;;;;;;;5.15;91.91;100464.02;108870;1273;22512;-87
2024/02/19 04:49:11;;;;;;;35.60;14.70;;;;;;;5.19;92.26;100460.13;109062;1273;22554;-88
2024/02/19 04:52:05;;;;;;;35.80;15.50;;;;;;;5.21;92.52;100455.23;109488;1270;22581;-89
2024/02/19 04:55:43;;;;;;;31.60;16.40;;;;;;;5.23;92.70;100450.52;109790;1273;22552;-89
2024/02/19 04:59:06;;;;;;;35.90;15.70;;;;;;;5.27;92.90;100446.84;109937;1275;22472;-90
2024/02/19 05:03:17;;;;;;;34.30;14.70;;;;;;;5.30;93.07;100442.49;109775;1274;22566;-89
2024/02/19 05:06:50;;;;;;;28.50;13.40;;;;;;;5.34;93.25;100430.75;109302;1274;22520;-88
2024/02/19 05:10:21;;;;;;;36.10;13.70;;;;;;;5.36;93.45;100426.27;109415;1274;23008;-90
2024/02/19 05:13:59;;;;;;;27.40;11.70;;;;;;;5.39;93.39;100424.74;109503;1274;22528;-89
2024/02/19 05:17:27;;;;;;;28.20;12.40;;;;;;;5.44;94.09;100422.86;109542;1274;22541;-90
2024/02/19 05:20:51;;;;;;;29.80;12.60;;;;;;;5.47;94.27;100417.70;109582;1274;24268;-91
2024/02/19 05:24:31;;;;;;;25.40;9.90;;;;;;;5.50;94.17;100410.90;109652;1274;23190;-90
2024/02/19 05:27:52;;;;;;;23.20;9.00;;;;;;;5.54;94.47;100408.65;109590;1274;23190;-90
2024/02/19 05:31:01;;;;;;;20.60;8.00;;;;;;;5.58;95.01;100406.95;109686;1274;25070;-90
2024/02/19 05:34:19;;;;;;;19.90;7.50;;;;;;;5.63;95.10;100403.63;108935;1274;22527;-89
2024/02/19 05:37:28;;;;;;;19.20;6.80;;;;;;;5.67;95.51;100397.23;109166;1274;22627;-89
2024/02/19 05:40:49;;;;;;;18.60;6.80;;;;;;;5.73;95.79;100397.23;109078;1274;22533;-89
2024/02/19 05:43:46;;;;;;;20.00;7.30;;;;;;;5.77;95.76;100392.83;109147;1274;22484;-89
2024/02/19 05:47:17;;;;;;;17.70;5.30;;;;;;;5.81;95.95;100390.71;109109;1274;22557;-89
2024/02/19 05:50:13;;;;;;;17.20;5.60;;;;;;;5.86;96.26;100387.83;108002;1267;22540;-87
2024/02/19 05:53:07;;;;;;;17.70;5.50;;;;;;;5.92;96.05;100388.05;107898;1269;22516;-86
2024/02/19 05:56:05;;;;;;;14.70;4.60;;;;;;;5.98;96.17;100384.77;108062;1276;25395;-87
2024/02/19 05:59:02;;;;;;;15.20;5.20;;;;;;;6.03;96.50;100379.53;108369;1276;24864;-86
2024/02/19 06:01:57;;;;;;;17.00;5.70;;;;;;;6.08;96.47;100381.27;107584;1276;22553;-86
2024/02/19 06:04:51;;;;;;;11.80;4.00;;;;;;;6.12;96.44;100379.47;107762;1276;23153;-85
2024/02/19 06:07:45;;;;;;;16.50;5.30;;;;;;;6.16;96.47;100374.67;108041;1271;22537;-85
2024/02/19 06:10:38;;;;;;;16.90;5.50;;;;;;;6.19;96.41;100369.66;107839;1274;22608;-86
2024/02/19 06:13:33;;;;;;;14.90;5.00;;;;;;;6.22;96.31;100372.02;109396;1268;24200;-86
2024/02/19 06:16:27;;;;;;;15.10;5.10;;;;;;;6.25;96.50;100375.30;110636;1274;22248;-87
2024/02/19 06:19:21;;;;;;;13.70;4.30;;;;;;;6.28;96.34;100378.38;107923;1271;22640;-86
2024/02/19 06:22:16;;;;;;;16.60;4.80;;;;;;;6.30;96.27;100373.63;108080;1274;22651;-87
2024/02/19 06:25:12;;;;;;;14.50;5.20;;;;;;;6.33;96.46;100369.27;108207;1275;22555;-86
2024/02/19 06:28:10;;;;;;;14.30;4.70;;;;;;;6.36;96.46;100370.91;108165;1269;22664;-87
2024/02/19 06:31:04;;;;;;;14.20;4.20;;;;;;;6.38;96.61;100367.03;110623;1275;22163;-87
2024/02/19 06:33:59;;;;;;;13.00;3.80;;;;;;;6.40;96.44;100360.45;108295;1275;24880;-87
2024/02/19 06:36:51;;;;;;;16.70;4.50;;;;;;;6.43;96.63;100359.03;110602;1275;22215;-87
2024/02/19 06:39:44;;;;;;;14.40;4.40;;;;;;;6.45;96.62;100355.70;110402;1271;22610;-86
2024/02/19 06:42:38;;;;;;;12.00;4.20;;;;;;;6.49;96.73;100352.10;108132;1271;23906;-87
2024/02/19 06:45:36;;;;;;;13.80;4.50;;;;;;;6.52;96.69;100347.53;110636;1270;22093;-87
2024/02/19 06:48:28;;;;;;;17.80;6.80;;;;;;;6.56;96.92;100348.17;108667;1272;24218;-87
2024/02/19 06:51:22;;;;;;;17.30;7.80;;;;;;;6.62;96.94;100347.20;108172;1274;22572;-87
2024/02/19 06:54:16;;;;;;;17.50;6.50;;;;;;;6.66;96.90;100347.94;108171;1273;22658;-87
2024/02/19 06:57:11;;;;;;;15.40;5.90;;;;;;;6.71;97.05;100348.16;108534;1274;22639;-88
2024/02/19 07:00:07;;;;;;;15.00;3.90;;;;;;;6.76;97.16;100340.83;108220;1271;23775;-87
2024/02/19 07:03:00;;;;;;;12.10;3.50;;;;;;;6.80;97.09;100343.14;108687;1274;22500;-87
2024/02/19 07:05:59;;;;;;;10.00;3.00;;;;;;;6.84;97.17;100340.92;109286;1274;22562;-87
2024/02/19 07:08:55;;;;;;;11.30;3.20;;;;;;;6.89;97.27;100343.67;109305;1268;22646;-88
2024/02/19 07:11:49;;;;;;;12.40;3.70;;;;;;;6.93;97.24;100341.63;108659;1274;22555;-88
2024/02/19 07:14:43;;;;;;;11.50;3.30;;;;;;;6.98;97.25;100335.19;108310;1273;22547;-86
2024/02/19 07:17:39;;;;;;;12.60;3.60;;;;;;;7.01;97.23;100335.23;108196;1274;22552;-87
2024/02/19 07:20:33;;;;;;;9.70;2.60;;;;;;;7.05;97.36;100334.48;108441;1274;25407;-88
2024/02/19 07:23:30;;;;;;;10.60;2.30;;;;;;;7.09;97.17;100331.53;108408;1267;22534;-88
2024/02/19 07:26:27;;;;;;;11.40;2.80;;;;;;;7.14;97.32;100330.23;108821;1274;22530;-88
2024/02/19 07:29:22;;;;;;;9.90;2.70;;;;;;;7.18;97.53;100323.64;109033;1274;22492;-89
2024/02/19 07:32:15;;;;;;;10.10;2.70;;;;;;;7.23;97.49;100318.70;109105;1262;25332;-87
2024/02/19 07:35:11;;;;;;;9.60;2.90;;;;;;;7.28;97.40;100323.90;109112;1274;22530;-88
2024/02/19 07:38:05;;;;;;;10.80;2.50;;;;;;;7.32;97.35;100321.70;108607;1274;22523;-88
2024/02/19 07:40:58;;;;;;;8.40;2.30;;;;;;;7.34;97.32;100318.82;108491;1274;22694;-87
2024/02/19 07:43:52;;;;;;;10.30;2.70;;;;;;;7.38;97.24;100315.14;108093;1274;22565;-88
2024/02/19 07:46:44;;;;;;;9.00;2.50;;;;;;;7.40;97.26;100311.48;108179;1274;23484;-86
2024/02/19 07:49:38;;;;;;;7.10;2.30;;;;;;;7.43;97.19;100311.92;108365;1274;22500;-88
2024/02/19 07:52:30;;;;;;;7.60;1.90;;;;;;;7.46;97.47;100308.08;108372;1270;22638;-87
2024/02/19 07:55:26;;;;;;;9.10;2.60;;;;;;;7.49;97.39;100313.17;108944;1268;22624;-87
2024/02/19 07:58:20;;;;;;;9.90;2.60;;;;;;;7.53;97.44;100314.21;108356;1267;22553;-87
2024/02/19 08:01:15;;;;;;;10.90;3.80;;;;;;;7.59;97.52;100313.68;108397;1273;22670;-86
2024/02/19 08:04:07;;;;;;;12.60;3.50;;;;;;;7.63;97.40;100314.85;109191;1268;22580;-86
2024/02/19 08:07:00;;;;;;;13.50;3.20;;;;;;;7.67;97.56;100310.38;108460;1274;24074;-85
2024/02/19 08:09:52;;;;;;;11.50;4.00;;;;;;;7.72;97.41;100309.65;108241;1271;22747;-87
2024/02/19 08:12:47;;;;;;;11.70;3.60;;;;;;;7.75;97.52;100311.09;108412;1274;22548;-89
2024/02/19 08:15:40;;;;;;;12.60;4.80;;;;;;;7.79;97.67;100307.12;108346;1272;25328;-86
2024/02/19 08:18:34;;;;;;;12.80;3.70;;;;;;;7.83;97.55;100305.86;108784;1272;24242;-87
2024/02/19 08:21:28;;;;;;;10.60;2.70;;;;;;;7.87;97.43;100307.66;108424;1270;24633;-86
2024/02/19 08:24:21;;;;;;;11.90;2.90;;;;;;;7.91;97.43;100309.05;108437;1274;22514;-86
2024/02/19 08:27:17;;;;;;;11.10;2.90;;;;;;;7.94;97.38;100305.34;108847;1274;22538;-87
2024/02/19 08:30:18;;;;;;;9.90;2.60;;;;;;;7.98;97.40;100307.40;108560;1267;25329;-87
2024/02/19 08:33:10;;;;;;;11.10;2.50;;;;;;;8.04;97.54;100310.64;108826;1274;22716;-85
2024/02/19 08:36:04;;;;;;;9.70;2.70;;;;;;;8.09;97.43;100312.64;108387;1274;22608;-86
2024/02/19 08:39:00;;;;;;;9.50;2.90;;;;;;;8.15;97.36;100314.16;109127;1272;25268;-86
2024/02/19 08:41:55;;;;;;;10.20;2.60;;;;;;;8.20;97.22;100311.33;108242;1250;22611;-86
2024/02/19 08:44:48;;;;;;;8.20;2.20;;;;;;;8.27;97.30;100309.39;108658;1270;22547;-87
2024/02/19 08:47:43;;;;;;;9.90;2.60;;;;;;;8.34;97.36;100309.16;110263;1270;22607;-86
2024/02/19 08:50:38;;;;;;;9.70;2.40;;;;;;;8.42;97.28;100303.42;108205;1270;23178;-86
2024/02/19 08:53:31;;;;;;;8.20;1.80;;;;;;;8.51;97.35;100298.99;108158;1266;22555;-86
2024/02/19 08:56:23;;;;;;;6.60;1.70;;;;;;;8.59;97.20;100301.77;108287;1269;22488;-86
2024/02/19 08:59:18;;;;;;;5.70;1.20;;;;;;;8.69;97.04;100305.95;108205;1274;23794;-86
2024/02/19 09:02:12;;;;;;;3.80;0.90;;;;;;;8.78;96.47;100307.20;108593;1267;22535;-87
2024/02/19 09:05:07;;;;;;;4.80;0.80;;;;;;;8.88;95.68;100310.67;108290;1253;22702;-87
2024/02/19 09:08:00;;;;;;;4.00;0.80;;;;;;;8.98;95.02;100309.66;108146;1274;22558;-86
2024/02/19 09:10:56;;;;;;;4.00;1.00;;;;;;;9.06;94.51;100309.24;108458;1274;23205;-86
2024/02/19 09:13:51;;;;;;;4.40;0.90;;;;;;;9.10;94.32;100307.54;108378;1274;25403;-86
2024/02/19 09:16:43;;;;;;;4.10;0.80;;;;;;;9.12;94.14;100310.31;108896;1274;25284;-86
2024/02/19 09:19:36;;;;;;;4.30;1.00;;;;;;;9.13;94.11;100312.26;108245;1274;22546;-87
2024/02/19 09:22:29;;;;;;;4.40;1.00;;;;;;;9.15;94.22;100315.34;108165;1274;25269;-87
2024/02/19 09:25:23;;;;;;;3.50;0.90;;;;;;;9.17;93.73;100315.81;108215;1274;23359;-86
2024/02/19 09:28:16;;;;;;;5.80;1.30;;;;;;;9.18;93.08;100321.66;108587;1274;22571;-87
2024/02/19 09:31:09;;;;;;;2.40;0.40;;;;;;;9.18;92.60;100320.45;108419;1273;23414;-86
2024/02/19 09:34:02;;;;;;;3.60;0.50;;;;;;;9.16;91.87;100327.02;108318;1273;25338;-86
2024/02/19 09:36:54;;;;;;;3.90;0.70;;;;;;;9.13;91.52;100332.10;108373;1270;23247;-86
2024/02/19 09:39:50;;;;;;;2.00;0.50;;;;;;;9.10;91.61;100337.36;108403;1274;24250;-86
2024/02/19 09:42:47;;;;;;;2.40;0.50;;;;;;;9.09;91.50;100342.34;108329;1274;24263;-87
2024/02/19 09:45:38;;;;;;;1.70;0.20;;;;;;;9.09;90.99;100346.44;108338;1267;23810;-86
2024/02/19 09:48:33;;;;;;;0.50;0.10;;;;;;;9.07;90.30;100352.72;108335;1274;23898;-86
2024/02/19 09:51:31;;;;;;;1.40;0.30;;;;;;;9.04;90.39;100354.52;108383;1274;22602;-87
2024/02/19 09:54:25;;;;;;;2.70;0.20;;;;;;;9.02;90.38;100358.52;108446;1274;22539;-86
2024/02/19 09:57:20;;;;;;;1.20;0.10;;;;;;;9.01;89.79;100360.21;108453;1274;22565;-87
2024/02/19 10:00:21;;;;;;;2.20;0.20;;;;;;;9.01;89.40;100358.72;108510;1274;25318;-86
2024/02/19 10:03:18;;;;;;;1.20;0.30;;;;;;;8.99;88.46;100360.80;108627;1274;24408;-87
2024/02/19 10:06:11;;;;;;;1.40;0.30;;;;;;;8.95;88.16;100367.02;109200;1273;22571;-86
2024/02/19 10:09:06;;;;;;;1.40;0.30;;;;;;;8.90;88.23;100364.83;108302;1274;25282;-86
2024/02/19 10:11:59;;;;;;;0.50;0.20;;;;;;;8.86;88.38;100372.50;108232;1274;25358;-86
2024/02/19 10:14:51;;;;;;;2.00;0.30;;;;;;;8.80;88.60;100377.84;108371;1271;22721;-86
2024/02/19 10:17:44;;;;;;;0.90;0.30;;;;;;;8.75;88.76;100378.23;108485;1274;25294;-87
2024/02/19 10:20:47;;;;;;;1.00;0.30;;;;;;;8.69;88.33;100387.30;108597;1271;24273;-86
2024/02/19 10:23:42;;;;;;;2.00;0.30;;;;;;;8.63;88.53;100388.29;108441;1273;22659;-87
2024/02/19 10:26:34;;;;;;;3.40;0.50;;;;;;;8.59;89.04;100393.70;108357;1274;22652;-86
2024/02/19 10:29:33;;;;;;;2.80;0.40;;;;;;;8.58;89.47;100389.00;108610;1274;22643;-86
2024/02/19 10:32:26;;;;;;;0.80;0.30;;;;;;;8.55;89.37;100386.89;108798;1271;2138883;-85
2024/02/19 10:35:19;;;;;;;1.30;0.40;;;;;;;8.50;89.36;100386.85;108913;1271;22628;-86
2024/02/19 10:38:14;;;;;;;1.10;0.30;;;;;;;8.45;89.51;100387.36;109006;1269;22603;-86
2024/02/19 10:41:08;;;;;;;1.60;0.40;;;;;;;8.40;89.17;100386.24;108778;1268;22725;-87
2024/02/19 10:44:04;;;;;;;1.70;0.20;;;;;;;8.36;88.91;100379.60;108428;1272;25232;-85
2024/02/19 10:47:00;;;;;;;1.10;0.20;;;;;;;8.36;89.17;100380.61;108662;1273;25500;-86
2024/02/19 10:49:57;;;;;;;1.20;0.30;;;;;;;8.38;89.08;100383.06;108624;1271;22602;-87
2024/02/19 10:52:52;;;;;;;0.80;0.20;;;;;;;8.39;88.68;100381.05;108553;1270;23928;-86
2024/02/19 10:55:46;;;;;;;1.70;0.30;;;;;;;8.38;88.97;100381.32;108657;1273;22534;-86
2024/02/19 10:58:51;;;;;;;1.60;0.30;;;;;;;8.37;88.92;100385.90;108622;1273;22549;-87
2024/02/19 11:01:44;;;;;;;2.20;0.40;;;;;;;8.35;88.57;100390.77;108443;1272;22565;-85
2024/02/19 11:04:37;;;;;;;1.30;0.60;;;;;;;8.31;88.47;100396.33;108536;1270;22577;-85
2024/02/19 11:07:36;;;;;;;1.80;0.60;;;;;;;8.28;88.55;100387.07;108591;1266;22532;-86
2024/02/19 11:10:40;;;;;;;1.70;0.50;;;;;;;8.28;88.93;100394.29;108496;1273;22643;-86
2024/02/19 11:13:36;;;;;;;3.40;0.70;;;;;;;8.30;88.87;100395.88;109105;1273;23371;-86
2024/02/19 11:16:31;;;;;;;3.30;1.10;;;;;;;8.30;88.72;100395.59;108612;1266;22614;-84
2024/02/19 11:19:23;;;;;;;1.70;0.60;;;;;;;8.28;88.72;100396.05;108575;1274;24389;-86
2024/02/19 11:22:22;;;;;;;2.10;0.70;;;;;;;8.27;88.51;100398.73;108553;1266;22600;-85
2024/02/19 11:25:18;;;;;;;1.80;0.80;;;;;;;8.27;88.37;100398.89;108496;1273;22531;-86
2024/02/19 11:28:12;;;;;;;3.20;0.80;;;;;;;8.28;88.43;100394.16;108844;1273;22560;-86
2024/02/19 11:31:06;;;;;;;3.70;0.90;;;;;;;8.29;88.38;100393.05;108468;1275;23650;-85
2024/02/19 11:33:59;;;;;;;2.90;0.70;;;;;;;8.31;88.20;100392.38;108508;1274;24799;-86
2024/02/19 11:36:50;;;;;;;3.20;0.90;;;;;;;8.33;88.28;100391.34;108453;1274;25405;-85
2024/02/19 11:39:47;;;;;;;2.80;0.90;;;;;;;8.34;88.14;100385.31;108536;1274;22634;-84
2024/02/19 11:42:39;;;;;;;3.10;0.70;;;;;;;8.36;88.45;100389.11;108448;1274;26632;-85
2024/02/19 11:45:33;;;;;;;1.90;0.70;;;;;;;8.36;88.38;100390.13;108455;1274;22561;-85
2024/02/19 11:48:26;;;;;;;2.80;0.70;;;;;;;8.34;88.23;100391.09;110077;1270;22594;-86
2024/02/19 11:51:18;;;;;;;2.70;0.90;;;;;;;8.30;88.38;100390.55;110737;1274;22232;-86
2024/02/19 11:54:12;;;;;;;3.00;0.80;;;;;;;8.27;88.81;100393.99;108551;1272;23414;-86
2024/02/19 11:57:05;;;;;;;2.50;0.70;;;;;;;8.25;88.70;100389.87;108419;1274;25325;-85
2024/02/19 12:00:05;;;;;;;2.90;0.90;;;;;;;8.26;88.96;100394.15;108559;1271;22561;-86
2024/02/19 12:02:58;;;;;;;3.00;0.90;;;;;;;8.28;89.13;100390.41;109394;1274;23244;-85
2024/02/19 12:05:51;;;;;;;3.80;0.90;;;;;;;8.30;89.55;100390.64;108488;1274;23225;-86
2024/02/19 12:08:45;;;;;;;2.10;0.70;;;;;;;8.31;89.50;100388.20;108593;1271;22538;-85
2024/02/19 12:11:40;;;;;;;2.60;0.80;;;;;;;8.30;89.38;100389.05;110037;1272;25027;-85
2024/02/19 12:14:33;;;;;;;2.10;0.60;;;;;;;8.29;89.26;100393.23;109946;1274;22715;-86
2024/02/19 12:17:25;;;;;;;2.40;0.60;;;;;;;8.27;89.11;100395.80;108625;1271;22686;-86
2024/02/19 12:20:22;;;;;;;4.00;0.60;;;;;;;8.24;89.37;100397.06;108626;1273;25345;-86
2024/02/19 12:23:19;;;;;;;1.80;0.50;;;;;;;8.22;89.63;100398.65;108545;1270;24462;-85
2024/02/19 12:26:12;;;;;;;2.30;0.70;;;;;;;8.20;89.92;100397.28;108408;1274;24240;-85
2024/02/19 12:29:06;;;;;;;2.90;0.70;;;;;;;8.20;90.36;100397.28;108555;1270;25207;-87
2024/02/19 12:32:00;;;;;;;2.60;0.60;;;;;;;8.17;90.34;100405.90;108663;1270;22556;-86
2024/02/19 12:34:54;;;;;;;22.20;5.10;;;;;;;8.13;90.42;100405.89;108637;1272;22553;-85
2024/02/19 12:37:47;;;;;;;8.50;1.70;;;;;;;8.09;90.81;100401.61;108436;1273;22844;-85
2024/02/19 12:40:42;;;;;;;2.30;0.60;;;;;;;8.06;91.53;100406.41;108677;1267;24195;-86
2024/02/19 12:43:36;;;;;;;2.70;0.80;;;;;;;8.01;92.07;100408.55;108596;1269;24559;-87
2024/02/19 12:46:30;;;;;;;3.10;0.90;;;;;;;7.95;92.44;100416.42;108765;1273;22591;-85
2024/02/19 12:49:22;;;;;;;2.10;0.70;;;;;;;7.91;92.98;100414.66;108672;1273;22538;-86
2024/02/19 12:52:21;;;;;;;2.90;0.80;;;;;;;7.87;93.28;100411.49;108494;1269;23183;-86
2024/02/19 12:55:19;;;;;;;4.10;0.90;;;;;;;7.83;94.13;100421.40;108476;1270;22639;-87
2024/02/19 12:58:13;;;;;;;3.40;0.70;;;;;;;7.79;94.25;100426.52;108679;1273;22756;-87
2024/02/19 13:01:11;;;;;;;8.40;0.70;;;;;;;7.73;94.14;100426.33;108646;1273;22538;-86
2024/02/19 13:04:07;;;;;;;2.10;0.60;;;;;;;7.72;94.42;100428.84;108514;1275;22559;-85
2024/02/19 13:07:02;;;;;;;1.70;0.50;;;;;;;7.72;94.78;100430.96;108625;1274;24197;-88
2024/02/19 13:09:55;;;;;;;2.40;0.70;;;;;;;7.70;94.72;100430.63;108421;1275;23358;-87
2024/02/19 13:12:50;;;;;;;2.00;0.70;;;;;;;7.68;94.93;100434.38;108444;1275;22532;-87
2024/02/19 13:19:40;;;;;;;2.00;0.50;;;;;;;7.54;95.48;100445.06;109499;1273;23149;-88
2024/02/19 13:22:40;;;;;;;1.70;0.50;;;;;;;7.45;95.95;100446.20;109079;1273;25291;-88
2024/02/19 13:25:33;;;;;;;3.80;0.70;;;;;;;7.39;95.90;100448.83;109032;1273;22572;-87
2024/02/19 13:28:31;;;;;;;3.40;0.50;;;;;;;7.33;95.94;100451.06;108785;1270;22527;-88
2024/02/19 13:31:27;;;;;;;4.30;0.60;;;;;;;7.30;96.10;100453.14;108640;1273;25223;-87
2024/02/19 13:34:21;;;;;;;2.00;0.50;;;;;;;7.29;96.21;100460.33;108567;1266;25224;-86
2024/02/19 13:37:18;;;;;;;2.50;0.50;;;;;;;7.24;96.16;100463.20;108413;1273;25281;-87
2024/02/19 13:40:12;;;;;;;2.70;0.80;;;;;;;7.18;95.85;100451.76;108547;1266;22579;-87
2024/02/19 13:43:12;;;;;;;2.10;0.50;;;;;;;7.17;96.29;100450.14;108594;1273;24151;-87
2024/02/19 13:46:08;;;;;;;2.60;0.60;;;;;;;7.17;96.34;100458.16;108503;1274;25255;-88
2024/02/19 13:49:03;;;;;;;5.90;0.80;;;;;;;7.16;96.14;100457.47;108463;1274;23282;-86